Airport ICAO


22:45 UTC

15°C

Scattered clouds


An affordable passengers' Moving Map for your aircraft. Made for the iPad and the iPhone
More information here

LFMN Cote D'Azur


Nice FRANCE   VFR


METAR LFMN 132230Z 34008KT 9999 SCT022 15/12 Q1027 NOSIG 0h15min

TAF LFMN 132000Z 1321/1503 33010KT 9999 BKN020 PROB30 TEMPO 1400/1410 BKN014 BECMG 1410/1412 09010KT PROB30 TEMPO 1414/1423 BKN014 BECMG 1417/1419 33010KT 2h45min





NOTAMS

OPEN